sensor_id;sensor_type;location;lat;lon;timestamp;P1;durP1;ratioP1;P2;durP2;ratioP2
41532;SDS011;27262;-35.248;149.138;2023-06-10T00:01:16;0.50;;;0.50;;
41532;SDS011;27262;-35.248;149.138;2023-06-10T00:03:47;1.70;;;0.77;;
41532;SDS011;27262;-35.248;149.138;2023-06-10T00:06:19;1.33;;;0.50;;
41532;SDS011;27262;-35.248;149.138;2023-06-10T00:08:52;1.30;;;0.75;;
41532;SDS011;27262;-35.248;149.138;2023-06-10T00:11:24;1.65;;;0.70;;
41532;SDS011;27262;-35.248;149.138;2023-06-10T00:13:54;0.60;;;0.55;;
41532;SDS011;27262;-35.248;149.138;2023-06-10T00:16:25;1.70;;;0.50;;
41532;SDS011;27262;-35.248;149.138;2023-06-10T00:18:56;1.05;;;0.80;;
41532;SDS011;27262;-35.248;149.138;2023-06-10T00:21:30;3.30;;;0.88;;
41532;SDS011;27262;-35.248;149.138;2023-06-10T00:24:09;1.73;;;0.57;;
41532;SDS011;27262;-35.248;149.138;2023-06-10T00:26:41;0.90;;;0.68;;
41532;SDS011;27262;-35.248;149.138;2023-06-10T00:29:11;2.47;;;0.88;;
41532;SDS011;27262;-35.248;149.138;2023-06-10T00:31:44;2.65;;;0.70;;
41532;SDS011;27262;-35.248;149.138;2023-06-10T00:34:16;1.30;;;0.70;;
41532;SDS011;27262;-35.248;149.138;2023-06-10T00:36:46;6.35;;;0.82;;
41532;SDS011;27262;-35.248;149.138;2023-06-10T00:39:17;1.30;;;0.57;;
41532;SDS011;27262;-35.248;149.138;2023-06-10T00:41:48;2.83;;;0.52;;
41532;SDS011;27262;-35.248;149.138;2023-06-10T00:44:18;5.60;;;1.10;;
41532;SDS011;27262;-35.248;149.138;2023-06-10T00:46:49;3.80;;;0.60;;
41532;SDS011;27262;-35.248;149.138;2023-06-10T00:49:21;8.82;;;0.80;;
41532;SDS011;27262;-35.248;149.138;2023-06-10T00:51:52;2.80;;;0.77;;
41532;SDS011;27262;-35.248;149.138;2023-06-10T00:54:22;1.10;;;0.60;;
41532;SDS011;27262;-35.248;149.138;2023-06-10T00:56:54;2.90;;;0.70;;
41532;SDS011;27262;-35.248;149.138;2023-06-10T00:59:26;17.15;;;1.15;;
41532;SDS011;27262;-35.248;149.138;2023-06-10T01:01:58;2.15;;;0.75;;
41532;SDS011;27262;-35.248;149.138;2023-06-10T01:04:31;1.27;;;0.63;;
41532;SDS011;27262;-35.248;149.138;2023-06-10T01:09:57;1.25;;;0.52;;
41532;SDS011;27262;-35.248;149.138;2023-06-10T01:15:17;2.65;;;0.90;;
41532;SDS011;27262;-35.248;149.138;2023-06-10T01:18:03;3.83;;;0.82;;
41532;SDS011;27262;-35.248;149.138;2023-06-10T01:20:38;2.80;;;0.93;;
41532;SDS011;27262;-35.248;149.138;2023-06-10T01:23:09;5.00;;;1.00;;
41532;SDS011;27262;-35.248;149.138;2023-06-10T01:25:41;3.80;;;0.70;;
41532;SDS011;27262;-35.248;149.138;2023-06-10T01:28:51;2.17;;;0.80;;
41532;SDS011;27262;-35.248;149.138;2023-06-10T01:31:48;2.92;;;0.70;;
41532;SDS011;27262;-35.248;149.138;2023-06-10T01:34:23;3.72;;;0.70;;
41532;SDS011;27262;-35.248;149.138;2023-06-10T01:36:53;3.38;;;0.88;;
41532;SDS011;27262;-35.248;149.138;2023-06-10T01:39:27;2.85;;;0.93;;
41532;SDS011;27262;-35.248;149.138;2023-06-10T01:41:58;2.40;;;0.60;;
41532;SDS011;27262;-35.248;149.138;2023-06-10T01:44:32;2.22;;;0.60;;
41532;SDS011;27262;-35.248;149.138;2023-06-10T01:47:02;5.90;;;0.95;;
41532;SDS011;27262;-35.248;149.138;2023-06-10T01:49:34;5.63;;;0.70;;
41532;SDS011;27262;-35.248;149.138;2023-06-10T01:52:04;3.28;;;0.70;;
41532;SDS011;27262;-35.248;149.138;2023-06-10T01:54:35;2.17;;;0.60;;
41532;SDS011;27262;-35.248;149.138;2023-06-10T01:57:06;3.85;;;0.98;;
41532;SDS011;27262;-35.248;149.138;2023-06-10T01:59:37;1.13;;;0.60;;
41532;SDS011;27262;-35.248;149.138;2023-06-10T02:02:07;2.05;;;0.60;;
41532;SDS011;27262;-35.248;149.138;2023-06-10T02:04:38;3.40;;;0.70;;
41532;SDS011;27262;-35.248;149.138;2023-06-10T02:07:08;1.58;;;0.60;;
41532;SDS011;27262;-35.248;149.138;2023-06-10T02:09:43;3.85;;;1.08;;
41532;SDS011;27262;-35.248;149.138;2023-06-10T02:12:14;2.00;;;0.68;;
41532;SDS011;27262;-35.248;149.138;2023-06-10T02:14:44;2.20;;;0.75;;
41532;SDS011;27262;-35.248;149.138;2023-06-10T02:17:15;3.92;;;0.70;;
41532;SDS011;27262;-35.248;149.138;2023-06-10T02:19:45;2.78;;;0.70;;
41532;SDS011;27262;-35.248;149.138;2023-06-10T02:22:21;2.20;;;0.68;;
41532;SDS011;27262;-35.248;149.138;2023-06-10T02:24:52;4.28;;;0.68;;
41532;SDS011;27262;-35.248;149.138;2023-06-10T02:27:23;3.53;;;0.95;;
41532;SDS011;27262;-35.248;149.138;2023-06-10T02:29:54;2.03;;;0.80;;
41532;SDS011;27262;-35.248;149.138;2023-06-10T02:32:24;3.38;;;0.63;;
41532;SDS011;27262;-35.248;149.138;2023-06-10T02:34:55;3.20;;;0.63;;
41532;SDS011;27262;-35.248;149.138;2023-06-10T02:37:26;4.57;;;0.70;;
41532;SDS011;27262;-35.248;149.138;2023-06-10T02:39:56;2.20;;;0.60;;
41532;SDS011;27262;-35.248;149.138;2023-06-10T02:42:27;1.63;;;0.73;;
41532;SDS011;27262;-35.248;149.138;2023-06-10T02:44:58;3.03;;;0.80;;
41532;SDS011;27262;-35.248;149.138;2023-06-10T02:47:29;2.22;;;0.40;;
41532;SDS011;27262;-35.248;149.138;2023-06-10T02:50:00;2.97;;;0.50;;
41532;SDS011;27262;-35.248;149.138;2023-06-10T02:52:30;1.58;;;0.60;;
41532;SDS011;27262;-35.248;149.138;2023-06-10T02:55:01;0.80;;;0.40;;
41532;SDS011;27262;-35.248;149.138;2023-06-10T02:57:32;1.15;;;0.57;;
41532;SDS011;27262;-35.248;149.138;2023-06-10T03:00:02;0.88;;;0.40;;
41532;SDS011;27262;-35.248;149.138;2023-06-10T03:02:38;1.48;;;0.50;;
41532;SDS011;27262;-35.248;149.138;2023-06-10T03:05:08;0.93;;;0.40;;
41532;SDS011;27262;-35.248;149.138;2023-06-10T03:07:39;3.80;;;0.73;;
41532;SDS011;27262;-35.248;149.138;2023-06-10T03:10:10;1.70;;;0.50;;
41532;SDS011;27262;-35.248;149.138;2023-06-10T03:12:40;1.77;;;0.60;;
41532;SDS011;27262;-35.248;149.138;2023-06-10T03:15:12;3.72;;;0.70;;
41532;SDS011;27262;-35.248;149.138;2023-06-10T03:17:44;1.05;;;0.60;;
41532;SDS011;27262;-35.248;149.138;2023-06-10T03:20:14;1.80;;;0.38;;
41532;SDS011;27262;-35.248;149.138;2023-06-10T03:22:45;3.65;;;0.50;;
41532;SDS011;27262;-35.248;149.138;2023-06-10T03:25:15;2.10;;;0.60;;
41532;SDS011;27262;-35.248;149.138;2023-06-10T03:27:45;1.85;;;0.47;;
41532;SDS011;27262;-35.248;149.138;2023-06-10T03:30:16;1.63;;;0.70;;
41532;SDS011;27262;-35.248;149.138;2023-06-10T03:32:46;1.13;;;0.47;;
41532;SDS011;27262;-35.248;149.138;2023-06-10T03:35:17;0.95;;;0.40;;
41532;SDS011;27262;-35.248;149.138;2023-06-10T03:37:48;6.43;;;0.50;;
41532;SDS011;27262;-35.248;149.138;2023-06-10T03:40:19;1.73;;;0.47;;
41532;SDS011;27262;-35.248;149.138;2023-06-10T03:42:49;2.53;;;0.50;;
41532;SDS011;27262;-35.248;149.138;2023-06-10T03:45:19;5.00;;;0.60;;
41532;SDS011;27262;-35.248;149.138;2023-06-10T03:47:50;3.58;;;0.70;;
41532;SDS011;27262;-35.248;149.138;2023-06-10T03:50:21;1.10;;;0.43;;
41532;SDS011;27262;-35.248;149.138;2023-06-10T03:52:52;0.98;;;0.40;;
41532;SDS011;27262;-35.248;149.138;2023-06-10T03:55:23;4.03;;;0.57;;
41532;SDS011;27262;-35.248;149.138;2023-06-10T03:57:53;3.00;;;0.80;;
41532;SDS011;27262;-35.248;149.138;2023-06-10T04:00:24;3.85;;;0.60;;
41532;SDS011;27262;-35.248;149.138;2023-06-10T04:02:54;2.60;;;0.50;;
41532;SDS011;27262;-35.248;149.138;2023-06-10T04:05:26;2.92;;;0.70;;
41532;SDS011;27262;-35.248;149.138;2023-06-10T04:07:57;2.78;;;0.45;;
41532;SDS011;27262;-35.248;149.138;2023-06-10T04:10:28;2.83;;;0.52;;
41532;SDS011;27262;-35.248;149.138;2023-06-10T04:12:58;3.30;;;0.88;;
41532;SDS011;27262;-35.248;149.138;2023-06-10T04:15:29;2.03;;;0.73;;
41532;SDS011;27262;-35.248;149.138;2023-06-10T04:18:02;2.80;;;0.77;;
41532;SDS011;27262;-35.248;149.138;2023-06-10T04:20:32;2.30;;;0.60;;
41532;SDS011;27262;-35.248;149.138;2023-06-10T04:23:03;5.97;;;0.47;;
41532;SDS011;27262;-35.248;149.138;2023-06-10T04:25:33;1.17;;;0.47;;
41532;SDS011;27262;-35.248;149.138;2023-06-10T04:28:04;3.10;;;0.73;;
41532;SDS011;27262;-35.248;149.138;2023-06-10T04:30:34;1.17;;;0.50;;
41532;SDS011;27262;-35.248;149.138;2023-06-10T04:33:05;0.90;;;0.50;;
41532;SDS011;27262;-35.248;149.138;2023-06-10T04:35:37;3.67;;;0.80;;
41532;SDS011;27262;-35.248;149.138;2023-06-10T04:38:07;5.57;;;0.68;;
41532;SDS011;27262;-35.248;149.138;2023-06-10T04:40:38;1.58;;;0.50;;
41532;SDS011;27262;-35.248;149.138;2023-06-10T04:43:09;1.92;;;0.45;;
41532;SDS011;27262;-35.248;149.138;2023-06-10T04:45:39;1.27;;;0.57;;
41532;SDS011;27262;-35.248;149.138;2023-06-10T04:48:14;2.22;;;0.80;;
41532;SDS011;27262;-35.248;149.138;2023-06-10T04:50:45;1.92;;;0.73;;
41532;SDS011;27262;-35.248;149.138;2023-06-10T04:53:15;2.72;;;0.47;;
41532;SDS011;27262;-35.248;149.138;2023-06-10T04:55:46;1.08;;;0.50;;
41532;SDS011;27262;-35.248;149.138;2023-06-10T04:58:16;5.53;;;0.60;;
41532;SDS011;27262;-35.248;149.138;2023-06-10T05:00:47;2.03;;;0.50;;
41532;SDS011;27262;-35.248;149.138;2023-06-10T05:03:17;1.67;;;0.60;;
41532;SDS011;27262;-35.248;149.138;2023-06-10T05:05:48;1.42;;;0.40;;
41532;SDS011;27262;-35.248;149.138;2023-06-10T05:08:21;4.18;;;0.55;;
41532;SDS011;27262;-35.248;149.138;2023-06-10T05:10:54;1.45;;;0.60;;
41532;SDS011;27262;-35.248;149.138;2023-06-10T05:13:25;1.23;;;0.60;;
41532;SDS011;27262;-35.248;149.138;2023-06-10T05:15:56;2.28;;;0.70;;
41532;SDS011;27262;-35.248;149.138;2023-06-10T05:18:26;3.90;;;0.80;;
41532;SDS011;27262;-35.248;149.138;2023-06-10T05:20:57;1.55;;;0.50;;
41532;SDS011;27262;-35.248;149.138;2023-06-10T05:23:27;2.80;;;0.60;;
41532;SDS011;27262;-35.248;149.138;2023-06-10T05:25:58;2.50;;;0.50;;
41532;SDS011;27262;-35.248;149.138;2023-06-10T05:28:28;1.30;;;0.60;;
41532;SDS011;27262;-35.248;149.138;2023-06-10T05:30:59;1.10;;;0.40;;
41532;SDS011;27262;-35.248;149.138;2023-06-10T05:33:29;4.65;;;0.40;;
41532;SDS011;27262;-35.248;149.138;2023-06-10T05:36:00;3.50;;;0.82;;
41532;SDS011;27262;-35.248;149.138;2023-06-10T05:38:30;2.65;;;0.73;;
41532;SDS011;27262;-35.248;149.138;2023-06-10T05:41:01;2.45;;;0.70;;
41532;SDS011;27262;-35.248;149.138;2023-06-10T05:43:32;4.22;;;0.70;;
41532;SDS011;27262;-35.248;149.138;2023-06-10T05:46:02;2.20;;;0.50;;
41532;SDS011;27262;-35.248;149.138;2023-06-10T05:48:34;3.55;;;0.55;;
41532;SDS011;27262;-35.248;149.138;2023-06-10T05:51:04;0.77;;;0.40;;
41532;SDS011;27262;-35.248;149.138;2023-06-10T05:53:35;2.25;;;0.52;;
41532;SDS011;27262;-35.248;149.138;2023-06-10T05:56:05;0.63;;;0.40;;
41532;SDS011;27262;-35.248;149.138;2023-06-10T05:58:36;3.22;;;0.60;;
41532;SDS011;27262;-35.248;149.138;2023-06-10T06:01:06;0.93;;;0.30;;
41532;SDS011;27262;-35.248;149.138;2023-06-10T06:03:37;1.13;;;0.50;;
41532;SDS011;27262;-35.248;149.138;2023-06-10T06:06:07;1.50;;;0.40;;
41532;SDS011;27262;-35.248;149.138;2023-06-10T06:08:38;2.67;;;0.52;;
41532;SDS011;27262;-35.248;149.138;2023-06-10T06:11:08;2.65;;;0.30;;
41532;SDS011;27262;-35.248;149.138;2023-06-10T06:13:38;1.90;;;0.40;;
41532;SDS011;27262;-35.248;149.138;2023-06-10T06:16:10;2.05;;;0.40;;
41532;SDS011;27262;-35.248;149.138;2023-06-10T06:18:41;2.50;;;0.60;;
41532;SDS011;27262;-35.248;149.138;2023-06-10T06:21:11;3.20;;;0.45;;
41532;SDS011;27262;-35.248;149.138;2023-06-10T06:23:41;2.03;;;0.55;;
41532;SDS011;27262;-35.248;149.138;2023-06-10T06:26:12;3.72;;;0.68;;
41532;SDS011;27262;-35.248;149.138;2023-06-10T06:28:42;2.63;;;0.47;;
41532;SDS011;27262;-35.248;149.138;2023-06-10T06:31:13;5.80;;;0.60;;
41532;SDS011;27262;-35.248;149.138;2023-06-10T06:33:43;2.65;;;0.40;;
41532;SDS011;27262;-35.248;149.138;2023-06-10T06:36:14;2.30;;;0.55;;
41532;SDS011;27262;-35.248;149.138;2023-06-10T06:38:44;3.97;;;0.60;;
41532;SDS011;27262;-35.248;149.138;2023-06-10T06:41:14;1.48;;;0.57;;
41532;SDS011;27262;-35.248;149.138;2023-06-10T06:43:45;5.75;;;0.90;;
41532;SDS011;27262;-35.248;149.138;2023-06-10T06:46:15;3.30;;;0.63;;
41532;SDS011;27262;-35.248;149.138;2023-06-10T06:48:45;6.28;;;0.57;;
41532;SDS011;27262;-35.248;149.138;2023-06-10T06:51:16;0.88;;;0.50;;
41532;SDS011;27262;-35.248;149.138;2023-06-10T06:53:47;5.15;;;0.77;;
41532;SDS011;27262;-35.248;149.138;2023-06-10T06:56:19;5.43;;;0.60;;
41532;SDS011;27262;-35.248;149.138;2023-06-10T06:58:50;3.60;;;0.40;;
41532;SDS011;27262;-35.248;149.138;2023-06-10T07:01:23;7.07;;;0.63;;
41532;SDS011;27262;-35.248;149.138;2023-06-10T07:03:54;13.60;;;0.80;;
41532;SDS011;27262;-35.248;149.138;2023-06-10T07:06:24;5.00;;;0.95;;
41532;SDS011;27262;-35.248;149.138;2023-06-10T07:08:54;2.58;;;0.95;;
41532;SDS011;27262;-35.248;149.138;2023-06-10T07:11:25;3.15;;;0.88;;
41532;SDS011;27262;-35.248;149.138;2023-06-10T07:13:55;3.78;;;0.73;;
41532;SDS011;27262;-35.248;149.138;2023-06-10T07:16:26;2.78;;;0.50;;
41532;SDS011;27262;-35.248;149.138;2023-06-10T07:18:56;2.17;;;0.57;;
41532;SDS011;27262;-35.248;149.138;2023-06-10T07:21:30;4.22;;;0.50;;
41532;SDS011;27262;-35.248;149.138;2023-06-10T07:24:01;3.50;;;0.65;;
41532;SDS011;27262;-35.248;149.138;2023-06-10T07:26:32;2.05;;;0.63;;
41532;SDS011;27262;-35.248;149.138;2023-06-10T07:29:02;1.33;;;0.70;;
41532;SDS011;27262;-35.248;149.138;2023-06-10T07:31:33;4.00;;;0.50;;
41532;SDS011;27262;-35.248;149.138;2023-06-10T07:34:04;1.88;;;0.60;;
41532;SDS011;27262;-35.248;149.138;2023-06-10T07:36:34;3.13;;;0.88;;
41532;SDS011;27262;-35.248;149.138;2023-06-10T07:39:05;2.10;;;0.45;;
41532;SDS011;27262;-35.248;149.138;2023-06-10T07:41:36;2.97;;;0.50;;
41532;SDS011;27262;-35.248;149.138;2023-06-10T07:44:06;1.63;;;0.60;;
41532;SDS011;27262;-35.248;149.138;2023-06-10T07:46:37;3.78;;;0.63;;
41532;SDS011;27262;-35.248;149.138;2023-06-10T07:49:07;1.75;;;0.43;;
41532;SDS011;27262;-35.248;149.138;2023-06-10T07:51:38;3.00;;;0.68;;
41532;SDS011;27262;-35.248;149.138;2023-06-10T07:54:08;3.50;;;0.73;;
41532;SDS011;27262;-35.248;149.138;2023-06-10T07:56:43;2.17;;;0.50;;
41532;SDS011;27262;-35.248;149.138;2023-06-10T07:59:13;1.77;;;0.50;;
41532;SDS011;27262;-35.248;149.138;2023-06-10T08:01:45;1.77;;;0.50;;
41532;SDS011;27262;-35.248;149.138;2023-06-10T08:04:15;2.20;;;0.88;;
41532;SDS011;27262;-35.248;149.138;2023-06-10T08:06:46;1.67;;;0.98;;
41532;SDS011;27262;-35.248;149.138;2023-06-10T08:09:16;4.95;;;1.05;;
41532;SDS011;27262;-35.248;149.138;2023-06-10T08:11:47;1.33;;;0.90;;
41532;SDS011;27262;-35.248;149.138;2023-06-10T08:14:17;3.83;;;0.77;;
41532;SDS011;27262;-35.248;149.138;2023-06-10T08:16:48;3.15;;;0.93;;
41532;SDS011;27262;-35.248;149.138;2023-06-10T08:19:18;1.73;;;0.90;;
41532;SDS011;27262;-35.248;149.138;2023-06-10T08:21:48;2.33;;;0.70;;
41532;SDS011;27262;-35.248;149.138;2023-06-10T08:24:19;4.75;;;0.90;;
41532;SDS011;27262;-35.248;149.138;2023-06-10T08:26:49;4.38;;;0.70;;
41532;SDS011;27262;-35.248;149.138;2023-06-10T08:29:20;3.38;;;0.90;;
41532;SDS011;27262;-35.248;149.138;2023-06-10T08:31:50;1.75;;;0.52;;
41532;SDS011;27262;-35.248;149.138;2023-06-10T08:34:21;2.63;;;0.88;;
41532;SDS011;27262;-35.248;149.138;2023-06-10T08:36:51;2.95;;;0.98;;
41532;SDS011;27262;-35.248;149.138;2023-06-10T08:39:23;5.80;;;0.80;;
41532;SDS011;27262;-35.248;149.138;2023-06-10T08:44:48;1.10;;;0.60;;
41532;SDS011;27262;-35.248;149.138;2023-06-10T08:47:24;1.75;;;0.70;;
41532;SDS011;27262;-35.248;149.138;2023-06-10T08:50:01;2.30;;;0.75;;
41532;SDS011;27262;-35.248;149.138;2023-06-10T08:52:36;1.10;;;0.65;;
41532;SDS011;27262;-35.248;149.138;2023-06-10T08:55:10;1.98;;;0.70;;
41532;SDS011;27262;-35.248;149.138;2023-06-10T08:58:01;2.60;;;0.80;;
41532;SDS011;27262;-35.248;149.138;2023-06-10T09:00:32;1.45;;;0.90;;
41532;SDS011;27262;-35.248;149.138;2023-06-10T09:03:03;2.58;;;0.70;;
41532;SDS011;27262;-35.248;149.138;2023-06-10T09:05:37;1.17;;;0.82;;
41532;SDS011;27262;-35.248;149.138;2023-06-10T09:08:08;1.77;;;0.90;;
41532;SDS011;27262;-35.248;149.138;2023-06-10T09:10:39;1.30;;;0.73;;
41532;SDS011;27262;-35.248;149.138;2023-06-10T09:13:10;1.80;;;0.75;;
41532;SDS011;27262;-35.248;149.138;2023-06-10T09:15:44;4.57;;;0.70;;
41532;SDS011;27262;-35.248;149.138;2023-06-10T09:18:14;2.30;;;0.98;;
41532;SDS011;27262;-35.248;149.138;2023-06-10T09:20:45;1.70;;;0.60;;
41532;SDS011;27262;-35.248;149.138;2023-06-10T09:23:15;1.23;;;0.80;;
41532;SDS011;27262;-35.248;149.138;2023-06-10T09:25:46;2.58;;;0.85;;
41532;SDS011;27262;-35.248;149.138;2023-06-10T09:28:28;2.72;;;0.90;;
41532;SDS011;27262;-35.248;149.138;2023-06-10T09:31:02;2.15;;;0.90;;
41532;SDS011;27262;-35.248;149.138;2023-06-10T09:33:36;2.50;;;1.00;;
41532;SDS011;27262;-35.248;149.138;2023-06-10T09:36:08;1.25;;;0.80;;
41532;SDS011;27262;-35.248;149.138;2023-06-10T09:38:40;2.05;;;0.60;;
41532;SDS011;27262;-35.248;149.138;2023-06-10T09:41:10;2.47;;;0.77;;
41532;SDS011;27262;-35.248;149.138;2023-06-10T09:43:44;3.60;;;0.70;;
41532;SDS011;27262;-35.248;149.138;2023-06-10T09:46:18;2.92;;;0.60;;
41532;SDS011;27262;-35.248;149.138;2023-06-10T09:48:49;2.50;;;0.80;;
41532;SDS011;27262;-35.248;149.138;2023-06-10T09:51:20;1.33;;;0.63;;
41532;SDS011;27262;-35.248;149.138;2023-06-10T09:53:51;3.40;;;0.80;;
41532;SDS011;27262;-35.248;149.138;2023-06-10T09:56:32;4.82;;;1.10;;
41532;SDS011;27262;-35.248;149.138;2023-06-10T09:59:03;1.60;;;0.70;;
41532;SDS011;27262;-35.248;149.138;2023-06-10T10:01:34;2.63;;;0.70;;
41532;SDS011;27262;-35.248;149.138;2023-06-10T10:04:05;3.45;;;0.80;;
41532;SDS011;27262;-35.248;149.138;2023-06-10T10:06:35;3.47;;;0.75;;
41532;SDS011;27262;-35.248;149.138;2023-06-10T10:09:07;2.35;;;0.90;;
41532;SDS011;27262;-35.248;149.138;2023-06-10T10:11:37;2.88;;;1.00;;
41532;SDS011;27262;-35.248;149.138;2023-06-10T10:14:08;1.02;;;0.80;;
41532;SDS011;27262;-35.248;149.138;2023-06-10T10:16:41;2.30;;;0.75;;
41532;SDS011;27262;-35.248;149.138;2023-06-10T10:19:15;1.67;;;0.70;;
41532;SDS011;27262;-35.248;149.138;2023-06-10T10:22:02;2.45;;;0.77;;
41532;SDS011;27262;-35.248;149.138;2023-06-10T10:24:56;1.60;;;0.70;;
41532;SDS011;27262;-35.248;149.138;2023-06-10T10:28:14;2.17;;;0.73;;
41532;SDS011;27262;-35.248;149.138;2023-06-10T10:30:30;1.38;;;0.70;;
41532;SDS011;27262;-35.248;149.138;2023-06-10T10:33:05;1.25;;;0.65;;
41532;SDS011;27262;-35.248;149.138;2023-06-10T10:35:46;2.25;;;1.00;;
41532;SDS011;27262;-35.248;149.138;2023-06-10T10:38:16;0.90;;;0.60;;
41532;SDS011;27262;-35.248;149.138;2023-06-10T10:40:48;0.82;;;0.60;;
41532;SDS011;27262;-35.248;149.138;2023-06-10T10:43:19;1.25;;;0.73;;
41532;SDS011;27262;-35.248;149.138;2023-06-10T10:46:02;2.25;;;0.60;;
41532;SDS011;27262;-35.248;149.138;2023-06-10T10:48:41;3.88;;;1.00;;
41532;SDS011;27262;-35.248;149.138;2023-06-10T10:51:12;0.50;;;0.45;;
41532;SDS011;27262;-35.248;149.138;2023-06-10T10:54:09;2.35;;;0.70;;
41532;SDS011;27262;-35.248;149.138;2023-06-10T10:57:28;0.98;;;0.77;;
41532;SDS011;27262;-35.248;149.138;2023-06-10T10:59:55;2.97;;;0.95;;
41532;SDS011;27262;-35.248;149.138;2023-06-10T11:02:44;3.25;;;1.02;;
41532;SDS011;27262;-35.248;149.138;2023-06-10T11:05:16;2.33;;;0.80;;
41532;SDS011;27262;-35.248;149.138;2023-06-10T11:07:54;1.67;;;1.00;;
41532;SDS011;27262;-35.248;149.138;2023-06-10T11:10:28;1.73;;;1.00;;
41532;SDS011;27262;-35.248;149.138;2023-06-10T11:13:07;1.30;;;0.82;;
41532;SDS011;27262;-35.248;149.138;2023-06-10T11:15:45;2.55;;;1.20;;
41532;SDS011;27262;-35.248;149.138;2023-06-10T11:21:04;1.50;;;0.73;;
41532;SDS011;27262;-35.248;149.138;2023-06-10T11:23:38;1.85;;;1.10;;
41532;SDS011;27262;-35.248;149.138;2023-06-10T11:31:19;2.38;;;0.95;;
41532;SDS011;27262;-35.248;149.138;2023-06-10T11:33:55;1.58;;;1.13;;
41532;SDS011;27262;-35.248;149.138;2023-06-10T11:36:27;1.83;;;0.90;;
41532;SDS011;27262;-35.248;149.138;2023-06-10T11:39:04;0.98;;;0.70;;
41532;SDS011;27262;-35.248;149.138;2023-06-10T11:41:36;1.73;;;0.90;;
41532;SDS011;27262;-35.248;149.138;2023-06-10T11:44:12;1.63;;;1.00;;
41532;SDS011;27262;-35.248;149.138;2023-06-10T11:46:47;2.47;;;1.05;;
41532;SDS011;27262;-35.248;149.138;2023-06-10T11:49:20;1.20;;;0.88;;
41532;SDS011;27262;-35.248;149.138;2023-06-10T11:51:55;3.28;;;1.40;;
41532;SDS011;27262;-35.248;149.138;2023-06-10T11:54:25;1.63;;;1.00;;
41532;SDS011;27262;-35.248;149.138;2023-06-10T11:56:58;2.60;;;1.35;;
41532;SDS011;27262;-35.248;149.138;2023-06-10T11:59:29;3.40;;;1.30;;
41532;SDS011;27262;-35.248;149.138;2023-06-10T12:02:00;1.83;;;1.40;;
41532;SDS011;27262;-35.248;149.138;2023-06-10T12:04:31;2.30;;;1.30;;
41532;SDS011;27262;-35.248;149.138;2023-06-10T12:07:02;1.63;;;1.40;;
41532;SDS011;27262;-35.248;149.138;2023-06-10T12:09:32;2.70;;;1.25;;
41532;SDS011;27262;-35.248;149.138;2023-06-10T12:12:03;1.90;;;1.05;;
41532;SDS011;27262;-35.248;149.138;2023-06-10T12:14:54;1.35;;;1.15;;
41532;SDS011;27262;-35.248;149.138;2023-06-10T12:20:08;1.95;;;1.50;;
41532;SDS011;27262;-35.248;149.138;2023-06-10T12:22:53;1.10;;;1.00;;
41532;SDS011;27262;-35.248;149.138;2023-06-10T12:25:28;2.78;;;1.67;;
41532;SDS011;27262;-35.248;149.138;2023-06-10T12:27:58;2.20;;;1.73;;
41532;SDS011;27262;-35.248;149.138;2023-06-10T12:30:29;2.25;;;1.45;;
41532;SDS011;27262;-35.248;149.138;2023-06-10T12:33:00;3.00;;;1.80;;
41532;SDS011;27262;-35.248;149.138;2023-06-10T12:35:31;2.25;;;1.20;;
41532;SDS011;27262;-35.248;149.138;2023-06-10T12:38:04;3.67;;;1.50;;
41532;SDS011;27262;-35.248;149.138;2023-06-10T12:40:49;3.28;;;1.33;;
41532;SDS011;27262;-35.248;149.138;2023-06-10T12:43:21;2.03;;;1.50;;
41532;SDS011;27262;-35.248;149.138;2023-06-10T12:45:52;2.15;;;1.40;;
41532;SDS011;27262;-35.248;149.138;2023-06-10T12:48:23;1.70;;;1.40;;
41532;SDS011;27262;-35.248;149.138;2023-06-10T12:50:57;1.98;;;1.52;;
41532;SDS011;27262;-35.248;149.138;2023-06-10T12:53:28;1.80;;;1.38;;
41532;SDS011;27262;-35.248;149.138;2023-06-10T12:55:59;2.13;;;1.70;;
41532;SDS011;27262;-35.248;149.138;2023-06-10T12:58:31;1.95;;;1.50;;
41532;SDS011;27262;-35.248;149.138;2023-06-10T13:01:01;1.42;;;1.20;;
41532;SDS011;27262;-35.248;149.138;2023-06-10T13:03:33;2.75;;;1.60;;
41532;SDS011;27262;-35.248;149.138;2023-06-10T13:06:03;3.30;;;1.50;;
41532;SDS011;27262;-35.248;149.138;2023-06-10T13:08:35;1.75;;;1.30;;
41532;SDS011;27262;-35.248;149.138;2023-06-10T13:11:05;2.55;;;1.40;;
41532;SDS011;27262;-35.248;149.138;2023-06-10T13:13:36;1.52;;;1.30;;
41532;SDS011;27262;-35.248;149.138;2023-06-10T13:16:07;2.08;;;1.60;;
41532;SDS011;27262;-35.248;149.138;2023-06-10T13:18:38;1.98;;;1.40;;
41532;SDS011;27262;-35.248;149.138;2023-06-10T13:21:08;2.17;;;1.55;;
41532;SDS011;27262;-35.248;149.138;2023-06-10T13:23:38;1.77;;;1.25;;
41532;SDS011;27262;-35.248;149.138;2023-06-10T13:26:09;2.92;;;1.50;;
41532;SDS011;27262;-35.248;149.138;2023-06-10T13:28:39;2.05;;;1.30;;
41532;SDS011;27262;-35.248;149.138;2023-06-10T13:31:09;1.73;;;1.50;;
41532;SDS011;27262;-35.248;149.138;2023-06-10T13:33:40;1.60;;;1.40;;
41532;SDS011;27262;-35.248;149.138;2023-06-10T13:36:12;2.13;;;1.10;;
41532;SDS011;27262;-35.248;149.138;2023-06-10T13:38:42;2.03;;;1.30;;
41532;SDS011;27262;-35.248;149.138;2023-06-10T13:41:13;2.25;;;1.20;;
41532;SDS011;27262;-35.248;149.138;2023-06-10T13:43:44;2.30;;;1.38;;
41532;SDS011;27262;-35.248;149.138;2023-06-10T13:46:15;1.98;;;1.30;;
41532;SDS011;27262;-35.248;149.138;2023-06-10T13:48:45;3.92;;;1.52;;
41532;SDS011;27262;-35.248;149.138;2023-06-10T13:51:16;2.78;;;1.30;;
41532;SDS011;27262;-35.248;149.138;2023-06-10T13:53:47;4.35;;;1.67;;
41532;SDS011;27262;-35.248;149.138;2023-06-10T13:56:17;2.25;;;1.40;;
41532;SDS011;27262;-35.248;149.138;2023-06-10T13:58:48;2.17;;;1.58;;
41532;SDS011;27262;-35.248;149.138;2023-06-10T14:01:18;1.58;;;1.38;;
41532;SDS011;27262;-35.248;149.138;2023-06-10T14:03:49;1.92;;;1.27;;
41532;SDS011;27262;-35.248;149.138;2023-06-10T14:06:19;1.73;;;1.40;;
41532;SDS011;27262;-35.248;149.138;2023-06-10T14:08:51;1.52;;;1.23;;
41532;SDS011;27262;-35.248;149.138;2023-06-10T14:11:23;2.85;;;1.30;;
41532;SDS011;27262;-35.248;149.138;2023-06-10T14:13:53;2.60;;;1.52;;
41532;SDS011;27262;-35.248;149.138;2023-06-10T14:16:26;1.55;;;1.42;;
41532;SDS011;27262;-35.248;149.138;2023-06-10T14:18:58;1.85;;;1.20;;
41532;SDS011;27262;-35.248;149.138;2023-06-10T14:21:29;1.67;;;1.38;;
41532;SDS011;27262;-35.248;149.138;2023-06-10T14:23:59;1.30;;;1.13;;
41532;SDS011;27262;-35.248;149.138;2023-06-10T14:26:30;1.98;;;1.10;;
41532;SDS011;27262;-35.248;149.138;2023-06-10T14:29:01;1.67;;;1.27;;
41532;SDS011;27262;-35.248;149.138;2023-06-10T14:31:31;2.33;;;1.50;;
41532;SDS011;27262;-35.248;149.138;2023-06-10T14:34:02;1.30;;;1.17;;
41532;SDS011;27262;-35.248;149.138;2023-06-10T14:36:36;1.48;;;1.35;;
41532;SDS011;27262;-35.248;149.138;2023-06-10T14:39:06;1.95;;;1.40;;
41532;SDS011;27262;-35.248;149.138;2023-06-10T14:41:36;1.50;;;1.30;;
41532;SDS011;27262;-35.248;149.138;2023-06-10T14:44:07;1.95;;;1.20;;
41532;SDS011;27262;-35.248;149.138;2023-06-10T14:46:37;2.20;;;1.25;;
41532;SDS011;27262;-35.248;149.138;2023-06-10T14:49:07;1.65;;;1.30;;
41532;SDS011;27262;-35.248;149.138;2023-06-10T14:51:38;2.10;;;1.48;;
41532;SDS011;27262;-35.248;149.138;2023-06-10T14:54:08;1.23;;;1.02;;
41532;SDS011;27262;-35.248;149.138;2023-06-10T14:56:39;1.90;;;1.17;;